sensor_id;sensor_type;location;lat;lon;timestamp;P1;durP1;ratioP1;P2;durP2;ratioP2
34711;SDS011;20941;42.408;25.634;2023-07-13T00:00:27;19.58;;;14.27;;
34711;SDS011;20941;42.408;25.634;2023-07-13T00:02:52;19.92;;;14.13;;
34711;SDS011;20941;42.408;25.634;2023-07-13T00:05:21;20.27;;;14.50;;
34711;SDS011;20941;42.408;25.634;2023-07-13T00:07:46;24.67;;;15.30;;
34711;SDS011;20941;42.408;25.634;2023-07-13T00:10:11;22.10;;;15.65;;
34711;SDS011;20941;42.408;25.634;2023-07-13T00:12:38;21.08;;;15.30;;
34711;SDS011;20941;42.408;25.634;2023-07-13T00:15:05;23.00;;;15.10;;
34711;SDS011;20941;42.408;25.634;2023-07-13T00:17:30;19.85;;;14.95;;
34711;SDS011;20941;42.408;25.634;2023-07-13T00:19:56;20.83;;;15.27;;
34711;SDS011;20941;42.408;25.634;2023-07-13T00:22:22;20.40;;;15.32;;
34711;SDS011;20941;42.408;25.634;2023-07-13T00:24:49;21.23;;;14.93;;
34711;SDS011;20941;42.408;25.634;2023-07-13T00:27:14;20.98;;;15.13;;
34711;SDS011;20941;42.408;25.634;2023-07-13T00:29:40;20.05;;;14.30;;
34711;SDS011;20941;42.408;25.634;2023-07-13T00:32:06;21.40;;;14.30;;
34711;SDS011;20941;42.408;25.634;2023-07-13T00:34:31;19.23;;;14.95;;
34711;SDS011;20941;42.408;25.634;2023-07-13T00:36:57;20.40;;;15.07;;
34711;SDS011;20941;42.408;25.634;2023-07-13T00:39:22;19.50;;;14.35;;
34711;SDS011;20941;42.408;25.634;2023-07-13T00:41:48;19.88;;;15.15;;
34711;SDS011;20941;42.408;25.634;2023-07-13T00:44:14;19.35;;;14.95;;
34711;SDS011;20941;42.408;25.634;2023-07-13T00:46:40;21.45;;;15.05;;
34711;SDS011;20941;42.408;25.634;2023-07-13T00:49:07;20.20;;;15.25;;
34711;SDS011;20941;42.408;25.634;2023-07-13T00:51:35;20.88;;;15.18;;
34711;SDS011;20941;42.408;25.634;2023-07-13T00:54:05;19.05;;;14.85;;
34711;SDS011;20941;42.408;25.634;2023-07-13T00:56:32;21.30;;;15.07;;
34711;SDS011;20941;42.408;25.634;2023-07-13T00:58:58;20.35;;;14.85;;
34711;SDS011;20941;42.408;25.634;2023-07-13T01:01:26;24.25;;;15.18;;
34711;SDS011;20941;42.408;25.634;2023-07-13T01:03:52;21.77;;;15.15;;
34711;SDS011;20941;42.408;25.634;2023-07-13T01:06:19;19.90;;;14.55;;
34711;SDS011;20941;42.408;25.634;2023-07-13T01:08:45;22.58;;;15.60;;
34711;SDS011;20941;42.408;25.634;2023-07-13T01:11:10;20.63;;;14.80;;
34711;SDS011;20941;42.408;25.634;2023-07-13T01:13:37;22.75;;;15.65;;
34711;SDS011;20941;42.408;25.634;2023-07-13T01:16:11;21.30;;;15.05;;
34711;SDS011;20941;42.408;25.634;2023-07-13T01:18:38;21.13;;;14.90;;
34711;SDS011;20941;42.408;25.634;2023-07-13T01:21:04;18.80;;;15.27;;
34711;SDS011;20941;42.408;25.634;2023-07-13T01:23:29;21.15;;;14.35;;
34711;SDS011;20941;42.408;25.634;2023-07-13T01:25:55;19.88;;;14.63;;
34711;SDS011;20941;42.408;25.634;2023-07-13T01:28:21;21.75;;;14.68;;
34711;SDS011;20941;42.408;25.634;2023-07-13T01:30:47;20.45;;;14.75;;
34711;SDS011;20941;42.408;25.634;2023-07-13T01:33:13;18.20;;;14.00;;
34711;SDS011;20941;42.408;25.634;2023-07-13T01:35:39;21.70;;;15.20;;
34711;SDS011;20941;42.408;25.634;2023-07-13T01:38:04;24.08;;;14.55;;
34711;SDS011;20941;42.408;25.634;2023-07-13T01:40:30;23.65;;;15.60;;
34711;SDS011;20941;42.408;25.634;2023-07-13T01:42:55;19.67;;;14.98;;
34711;SDS011;20941;42.408;25.634;2023-07-13T01:45:21;20.75;;;14.93;;
34711;SDS011;20941;42.408;25.634;2023-07-13T01:47:46;25.40;;;15.70;;
34711;SDS011;20941;42.408;25.634;2023-07-13T01:50:11;20.63;;;14.35;;
34711;SDS011;20941;42.408;25.634;2023-07-13T01:52:37;20.67;;;15.52;;
34711;SDS011;20941;42.408;25.634;2023-07-13T01:55:02;23.63;;;15.55;;
34711;SDS011;20941;42.408;25.634;2023-07-13T01:57:28;24.65;;;15.82;;
34711;SDS011;20941;42.408;25.634;2023-07-13T01:59:53;20.90;;;15.02;;
34711;SDS011;20941;42.408;25.634;2023-07-13T02:02:19;21.27;;;15.40;;
34711;SDS011;20941;42.408;25.634;2023-07-13T02:04:44;23.08;;;15.32;;
34711;SDS011;20941;42.408;25.634;2023-07-13T02:07:10;26.88;;;16.38;;
34711;SDS011;20941;42.408;25.634;2023-07-13T02:09:35;24.45;;;15.35;;
34711;SDS011;20941;42.408;25.634;2023-07-13T02:12:01;25.40;;;16.75;;
34711;SDS011;20941;42.408;25.634;2023-07-13T02:14:26;20.13;;;15.68;;
34711;SDS011;20941;42.408;25.634;2023-07-13T02:16:51;23.73;;;17.25;;
34711;SDS011;20941;42.408;25.634;2023-07-13T02:19:17;26.45;;;16.92;;
34711;SDS011;20941;42.408;25.634;2023-07-13T02:21:42;23.67;;;16.05;;
34711;SDS011;20941;42.408;25.634;2023-07-13T02:24:08;22.70;;;15.55;;
34711;SDS011;20941;42.408;25.634;2023-07-13T02:26:33;20.35;;;15.50;;
34711;SDS011;20941;42.408;25.634;2023-07-13T02:28:59;25.23;;;16.15;;
34711;SDS011;20941;42.408;25.634;2023-07-13T02:31:24;22.98;;;16.38;;
34711;SDS011;20941;42.408;25.634;2023-07-13T02:33:50;26.70;;;16.58;;
34711;SDS011;20941;42.408;25.634;2023-07-13T02:36:15;25.23;;;16.45;;
34711;SDS011;20941;42.408;25.634;2023-07-13T02:38:41;26.80;;;17.00;;
34711;SDS011;20941;42.408;25.634;2023-07-13T02:41:07;24.13;;;17.65;;
34711;SDS011;20941;42.408;25.634;2023-07-13T02:43:33;29.10;;;21.17;;
34711;SDS011;20941;42.408;25.634;2023-07-13T02:45:59;25.42;;;17.25;;
34711;SDS011;20941;42.408;25.634;2023-07-13T02:48:34;24.33;;;17.85;;
34711;SDS011;20941;42.408;25.634;2023-07-13T02:51:00;29.35;;;17.88;;
34711;SDS011;20941;42.408;25.634;2023-07-13T02:53:25;29.73;;;19.00;;
34711;SDS011;20941;42.408;25.634;2023-07-13T02:55:50;26.08;;;17.13;;
34711;SDS011;20941;42.408;25.634;2023-07-13T02:58:16;28.38;;;17.38;;
34711;SDS011;20941;42.408;25.634;2023-07-13T03:00:42;22.90;;;17.33;;
34711;SDS011;20941;42.408;25.634;2023-07-13T03:03:07;24.90;;;16.70;;
34711;SDS011;20941;42.408;25.634;2023-07-13T03:05:33;24.17;;;16.67;;
34711;SDS011;20941;42.408;25.634;2023-07-13T03:07:58;27.30;;;17.60;;
34711;SDS011;20941;42.408;25.634;2023-07-13T03:10:23;29.90;;;18.00;;
34711;SDS011;20941;42.408;25.634;2023-07-13T03:12:49;26.70;;;17.10;;
34711;SDS011;20941;42.408;25.634;2023-07-13T03:15:14;24.77;;;17.67;;
34711;SDS011;20941;42.408;25.634;2023-07-13T03:17:40;22.42;;;16.80;;
34711;SDS011;20941;42.408;25.634;2023-07-13T03:20:05;27.42;;;16.67;;
34711;SDS011;20941;42.408;25.634;2023-07-13T03:22:32;27.85;;;17.98;;
34711;SDS011;20941;42.408;25.634;2023-07-13T03:24:57;25.30;;;17.52;;
34711;SDS011;20941;42.408;25.634;2023-07-13T03:27:22;23.42;;;17.27;;
34711;SDS011;20941;42.408;25.634;2023-07-13T03:29:48;25.25;;;16.75;;
34711;SDS011;20941;42.408;25.634;2023-07-13T03:32:13;24.92;;;15.77;;
34711;SDS011;20941;42.408;25.634;2023-07-13T03:34:38;20.52;;;16.27;;
34711;SDS011;20941;42.408;25.634;2023-07-13T03:37:04;22.42;;;16.90;;
34711;SDS011;20941;42.408;25.634;2023-07-13T03:39:29;25.48;;;17.85;;
34711;SDS011;20941;42.408;25.634;2023-07-13T03:41:54;24.92;;;16.30;;
34711;SDS011;20941;42.408;25.634;2023-07-13T03:44:20;24.30;;;16.52;;
34711;SDS011;20941;42.408;25.634;2023-07-13T03:46:45;25.23;;;16.23;;
34711;SDS011;20941;42.408;25.634;2023-07-13T03:49:11;25.27;;;16.65;;
34711;SDS011;20941;42.408;25.634;2023-07-13T03:51:36;29.55;;;16.60;;
34711;SDS011;20941;42.408;25.634;2023-07-13T03:54:02;20.45;;;15.40;;
34711;SDS011;20941;42.408;25.634;2023-07-13T03:56:27;25.88;;;16.88;;
34711;SDS011;20941;42.408;25.634;2023-07-13T03:58:53;29.20;;;17.15;;
34711;SDS011;20941;42.408;25.634;2023-07-13T04:01:19;28.98;;;16.88;;
34711;SDS011;20941;42.408;25.634;2023-07-13T04:03:44;27.77;;;15.55;;
34711;SDS011;20941;42.408;25.634;2023-07-13T04:06:16;24.77;;;16.33;;
34711;SDS011;20941;42.408;25.634;2023-07-13T04:08:45;25.15;;;14.98;;
34711;SDS011;20941;42.408;25.634;2023-07-13T04:11:11;23.90;;;14.70;;
34711;SDS011;20941;42.408;25.634;2023-07-13T04:13:36;32.90;;;16.67;;
34711;SDS011;20941;42.408;25.634;2023-07-13T04:16:02;26.63;;;16.10;;
34711;SDS011;20941;42.408;25.634;2023-07-13T04:18:28;29.75;;;15.93;;
34711;SDS011;20941;42.408;25.634;2023-07-13T04:20:53;29.85;;;15.95;;
34711;SDS011;20941;42.408;25.634;2023-07-13T04:23:19;24.52;;;15.32;;
34711;SDS011;20941;42.408;25.634;2023-07-13T04:25:46;23.45;;;15.02;;
34711;SDS011;20941;42.408;25.634;2023-07-13T04:28:11;24.25;;;15.20;;
34711;SDS011;20941;42.408;25.634;2023-07-13T04:30:37;29.00;;;15.38;;
34711;SDS011;20941;42.408;25.634;2023-07-13T04:33:02;27.73;;;16.02;;
34711;SDS011;20941;42.408;25.634;2023-07-13T04:35:28;23.58;;;15.85;;
34711;SDS011;20941;42.408;25.634;2023-07-13T04:37:54;26.65;;;17.05;;
34711;SDS011;20941;42.408;25.634;2023-07-13T04:40:19;33.42;;;15.98;;
34711;SDS011;20941;42.408;25.634;2023-07-13T04:42:45;23.35;;;16.63;;
34711;SDS011;20941;42.408;25.634;2023-07-13T04:45:12;23.42;;;15.30;;
34711;SDS011;20941;42.408;25.634;2023-07-13T04:47:37;21.27;;;15.15;;
34711;SDS011;20941;42.408;25.634;2023-07-13T04:50:03;26.73;;;15.25;;
34711;SDS011;20941;42.408;25.634;2023-07-13T04:52:29;26.63;;;15.23;;
34711;SDS011;20941;42.408;25.634;2023-07-13T04:55:06;31.55;;;14.07;;
34711;SDS011;20941;42.408;25.634;2023-07-13T04:57:31;29.58;;;15.05;;
34711;SDS011;20941;42.408;25.634;2023-07-13T05:02:34;25.92;;;15.10;;
34711;SDS011;20941;42.408;25.634;2023-07-13T05:05:00;24.23;;;15.25;;
34711;SDS011;20941;42.408;25.634;2023-07-13T05:07:26;28.33;;;14.50;;
34711;SDS011;20941;42.408;25.634;2023-07-13T05:09:51;21.83;;;13.90;;
34711;SDS011;20941;42.408;25.634;2023-07-13T05:12:17;18.60;;;13.82;;
34711;SDS011;20941;42.408;25.634;2023-07-13T05:14:43;22.33;;;13.27;;
34711;SDS011;20941;42.408;25.634;2023-07-13T05:17:08;32.25;;;14.52;;
34711;SDS011;20941;42.408;25.634;2023-07-13T05:19:34;24.08;;;14.82;;
34711;SDS011;20941;42.408;25.634;2023-07-13T05:22:03;21.60;;;13.07;;
34711;SDS011;20941;42.408;25.634;2023-07-13T05:24:29;24.67;;;13.00;;
34711;SDS011;20941;42.408;25.634;2023-07-13T05:26:54;24.60;;;13.60;;
34711;SDS011;20941;42.408;25.634;2023-07-13T05:29:20;29.67;;;14.23;;
34711;SDS011;20941;42.408;25.634;2023-07-13T05:31:46;22.27;;;14.40;;
34711;SDS011;20941;42.408;25.634;2023-07-13T05:36:56;17.73;;;13.80;;
34711;SDS011;20941;42.408;25.634;2023-07-13T05:39:22;20.70;;;13.82;;
34711;SDS011;20941;42.408;25.634;2023-07-13T05:44:20;19.27;;;13.10;;
34711;SDS011;20941;42.408;25.634;2023-07-13T05:46:49;22.55;;;14.13;;
34711;SDS011;20941;42.408;25.634;2023-07-13T05:52:28;24.77;;;13.15;;
34711;SDS011;20941;42.408;25.634;2023-07-13T06:05:06;24.52;;;12.85;;
34711;SDS011;20941;42.408;25.634;2023-07-13T06:39:02;20.02;;;13.35;;
34711;SDS011;20941;42.408;25.634;2023-07-13T06:41:34;20.63;;;12.80;;
34711;SDS011;20941;42.408;25.634;2023-07-13T06:44:00;17.83;;;13.30;;
34711;SDS011;20941;42.408;25.634;2023-07-13T06:46:43;18.73;;;13.18;;
34711;SDS011;20941;42.408;25.634;2023-07-13T06:58:00;20.33;;;13.50;;
34711;SDS011;20941;42.408;25.634;2023-07-13T07:00:26;21.50;;;14.23;;
34711;SDS011;20941;42.408;25.634;2023-07-13T07:11:19;17.25;;;13.27;;
34711;SDS011;20941;42.408;25.634;2023-07-13T07:13:53;20.40;;;13.27;;
34711;SDS011;20941;42.408;25.634;2023-07-13T07:16:19;19.80;;;13.20;;
34711;SDS011;20941;42.408;25.634;2023-07-13T07:18:45;16.38;;;13.15;;
34711;SDS011;20941;42.408;25.634;2023-07-13T07:21:11;21.17;;;13.20;;
34711;SDS011;20941;42.408;25.634;2023-07-13T07:23:37;16.98;;;12.88;;
34711;SDS011;20941;42.408;25.634;2023-07-13T07:26:02;17.42;;;13.07;;
34711;SDS011;20941;42.408;25.634;2023-07-13T07:28:28;20.23;;;13.85;;
34711;SDS011;20941;42.408;25.634;2023-07-13T07:30:54;16.98;;;13.73;;
34711;SDS011;20941;42.408;25.634;2023-07-13T07:33:20;19.88;;;13.73;;
34711;SDS011;20941;42.408;25.634;2023-07-13T07:38:50;18.70;;;13.60;;
34711;SDS011;20941;42.408;25.634;2023-07-13T07:41:15;37.17;;;15.57;;
34711;SDS011;20941;42.408;25.634;2023-07-13T07:43:40;19.52;;;14.70;;
34711;SDS011;20941;42.408;25.634;2023-07-13T07:46:06;18.40;;;13.80;;
34711;SDS011;20941;42.408;25.634;2023-07-13T07:48:31;18.58;;;13.52;;
34711;SDS011;20941;42.408;25.634;2023-07-13T07:50:57;19.77;;;13.77;;
34711;SDS011;20941;42.408;25.634;2023-07-13T07:53:23;17.40;;;12.73;;
34711;SDS011;20941;42.408;25.634;2023-07-13T07:55:48;22.33;;;13.35;;
34711;SDS011;20941;42.408;25.634;2023-07-13T07:58:13;18.27;;;12.98;;
34711;SDS011;20941;42.408;25.634;2023-07-13T08:00:39;18.80;;;12.93;;
34711;SDS011;20941;42.408;25.634;2023-07-13T08:03:05;23.70;;;13.55;;
34711;SDS011;20941;42.408;25.634;2023-07-13T08:05:30;16.02;;;13.60;;
34711;SDS011;20941;42.408;25.634;2023-07-13T08:07:56;19.52;;;13.55;;
34711;SDS011;20941;42.408;25.634;2023-07-13T08:10:21;19.52;;;14.23;;
34711;SDS011;20941;42.408;25.634;2023-07-13T08:12:46;19.10;;;12.27;;
34711;SDS011;20941;42.408;25.634;2023-07-13T08:15:13;17.20;;;12.30;;
34711;SDS011;20941;42.408;25.634;2023-07-13T08:17:39;20.95;;;12.98;;
34711;SDS011;20941;42.408;25.634;2023-07-13T08:20:05;16.48;;;12.23;;
34711;SDS011;20941;42.408;25.634;2023-07-13T08:22:31;16.95;;;12.73;;
34711;SDS011;20941;42.408;25.634;2023-07-13T08:24:56;21.50;;;12.95;;
34711;SDS011;20941;42.408;25.634;2023-07-13T08:27:25;16.30;;;12.43;;
34711;SDS011;20941;42.408;25.634;2023-07-13T08:29:50;17.77;;;13.18;;
34711;SDS011;20941;42.408;25.634;2023-07-13T08:32:17;17.83;;;12.77;;
34711;SDS011;20941;42.408;25.634;2023-07-13T08:34:43;16.98;;;12.27;;
34711;SDS011;20941;42.408;25.634;2023-07-13T08:37:08;17.25;;;12.50;;
34711;SDS011;20941;42.408;25.634;2023-07-13T08:39:34;15.65;;;12.23;;
34711;SDS011;20941;42.408;25.634;2023-07-13T08:42:05;17.75;;;12.60;;
34711;SDS011;20941;42.408;25.634;2023-07-13T08:45:14;14.05;;;11.60;;
34711;SDS011;20941;42.408;25.634;2023-07-13T08:47:21;25.55;;;12.63;;
34711;SDS011;20941;42.408;25.634;2023-07-13T08:49:47;17.58;;;11.20;;
34711;SDS011;20941;42.408;25.634;2023-07-13T08:54:45;17.80;;;12.15;;
34711;SDS011;20941;42.408;25.634;2023-07-13T08:57:13;16.75;;;11.18;;
34711;SDS011;20941;42.408;25.634;2023-07-13T08:59:39;15.98;;;11.52;;
34711;SDS011;20941;42.408;25.634;2023-07-13T09:04:37;17.17;;;10.85;;
34711;SDS011;20941;42.408;25.634;2023-07-13T09:12:22;11.30;;;9.30;;
34711;SDS011;20941;42.408;25.634;2023-07-13T09:14:51;22.08;;;11.23;;
34711;SDS011;20941;42.408;25.634;2023-07-13T09:17:19;14.27;;;9.85;;
34711;SDS011;20941;42.408;25.634;2023-07-13T09:19:51;11.80;;;9.55;;
34711;SDS011;20941;42.408;25.634;2023-07-13T09:22:19;16.95;;;10.10;;
34711;SDS011;20941;42.408;25.634;2023-07-13T09:27:43;14.80;;;10.80;;
34711;SDS011;20941;42.408;25.634;2023-07-13T09:32:41;14.75;;;9.18;;
34711;SDS011;20941;42.408;25.634;2023-07-13T09:35:15;15.10;;;9.93;;
34711;SDS011;20941;42.408;25.634;2023-07-13T09:37:42;15.40;;;8.23;;
34711;SDS011;20941;42.408;25.634;2023-07-13T09:40:22;12.55;;;8.93;;
34711;SDS011;20941;42.408;25.634;2023-07-13T09:42:51;14.18;;;9.43;;
34711;SDS011;20941;42.408;25.634;2023-07-13T09:45:26;14.32;;;9.93;;
34711;SDS011;20941;42.408;25.634;2023-07-13T09:47:53;15.57;;;8.95;;
34711;SDS011;20941;42.408;25.634;2023-07-13T09:50:23;17.92;;;10.30;;
34711;SDS011;20941;42.408;25.634;2023-07-13T09:52:49;11.40;;;9.15;;
34711;SDS011;20941;42.408;25.634;2023-07-13T09:57:49;13.82;;;9.07;;
34711;SDS011;20941;42.408;25.634;2023-07-13T10:00:23;12.63;;;9.77;;
34711;SDS011;20941;42.408;25.634;2023-07-13T10:02:57;13.15;;;9.73;;
34711;SDS011;20941;42.408;25.634;2023-07-13T10:07:49;13.00;;;9.60;;
34711;SDS011;20941;42.408;25.634;2023-07-13T10:10:21;11.90;;;8.75;;
34711;SDS011;20941;42.408;25.634;2023-07-13T10:12:47;13.00;;;8.32;;
34711;SDS011;20941;42.408;25.634;2023-07-13T10:15:14;11.45;;;7.97;;
34711;SDS011;20941;42.408;25.634;2023-07-13T10:17:40;16.27;;;8.88;;
34711;SDS011;20941;42.408;25.634;2023-07-13T10:20:06;10.95;;;7.80;;
34711;SDS011;20941;42.408;25.634;2023-07-13T10:27:43;16.15;;;8.38;;
34711;SDS011;20941;42.408;25.634;2023-07-13T10:30:11;11.07;;;8.93;;
34711;SDS011;20941;42.408;25.634;2023-07-13T10:32:38;14.02;;;9.27;;
34711;SDS011;20941;42.408;25.634;2023-07-13T10:35:03;9.88;;;8.45;;
34711;SDS011;20941;42.408;25.634;2023-07-13T10:37:34;13.77;;;9.23;;
34711;SDS011;20941;42.408;25.634;2023-07-13T10:40:02;13.18;;;9.25;;
34711;SDS011;20941;42.408;25.634;2023-07-13T10:42:33;14.40;;;9.10;;
34711;SDS011;20941;42.408;25.634;2023-07-13T10:45:00;15.23;;;8.98;;
34711;SDS011;20941;42.408;25.634;2023-07-13T10:47:26;9.43;;;7.95;;
34711;SDS011;20941;42.408;25.634;2023-07-13T10:49:54;9.50;;;8.48;;
34711;SDS011;20941;42.408;25.634;2023-07-13T10:55:05;6.70;;;5.40;;
34711;SDS011;20941;42.408;25.634;2023-07-13T10:57:32;9.45;;;6.47;;
34711;SDS011;20941;42.408;25.634;2023-07-13T11:00:14;8.77;;;5.38;;
34711;SDS011;20941;42.408;25.634;2023-07-13T11:02:39;13.85;;;7.03;;
34711;SDS011;20941;42.408;25.634;2023-07-13T11:05:26;8.52;;;4.80;;
34711;SDS011;20941;42.408;25.634;2023-07-13T11:08:02;9.18;;;5.80;;
34711;SDS011;20941;42.408;25.634;2023-07-13T11:13:35;8.60;;;5.57;;
34711;SDS011;20941;42.408;25.634;2023-07-13T11:15:57;7.95;;;6.05;;
34711;SDS011;20941;42.408;25.634;2023-07-13T11:18:23;12.80;;;6.43;;
34711;SDS011;20941;42.408;25.634;2023-07-13T11:20:50;10.50;;;6.53;;
34711;SDS011;20941;42.408;25.634;2023-07-13T11:25:41;13.20;;;5.10;;
34711;SDS011;20941;42.408;25.634;2023-07-13T11:35:53;7.97;;;5.13;;
34711;SDS011;20941;42.408;25.634;2023-07-13T11:38:27;11.73;;;5.60;;
34711;SDS011;20941;42.408;25.634;2023-07-13T11:40:53;8.02;;;5.00;;
34711;SDS011;20941;42.408;25.634;2023-07-13T11:43:19;13.63;;;5.60;;
34711;SDS011;20941;42.408;25.634;2023-07-13T11:45:44;6.10;;;4.68;;
34711;SDS011;20941;42.408;25.634;2023-07-13T11:53:43;7.72;;;5.35;;
34711;SDS011;20941;42.408;25.634;2023-07-13T11:56:10;6.85;;;5.28;;
34711;SDS011;20941;42.408;25.634;2023-07-13T11:58:35;8.02;;;4.82;;
34711;SDS011;20941;42.408;25.634;2023-07-13T12:01:01;10.43;;;5.07;;
34711;SDS011;20941;42.408;25.634;2023-07-13T12:03:29;9.55;;;4.93;;
34711;SDS011;20941;42.408;25.634;2023-07-13T12:05:58;12.15;;;5.32;;
34711;SDS011;20941;42.408;25.634;2023-07-13T12:08:25;10.35;;;5.10;;
34711;SDS011;20941;42.408;25.634;2023-07-13T12:11:04;6.25;;;5.20;;
34711;SDS011;20941;42.408;25.634;2023-07-13T12:13:36;8.75;;;5.43;;
34711;SDS011;20941;42.408;25.634;2023-07-13T12:16:07;17.52;;;5.90;;
34711;SDS011;20941;42.408;25.634;2023-07-13T12:18:35;7.80;;;5.25;;
34711;SDS011;20941;42.408;25.634;2023-07-13T12:21:04;10.27;;;5.03;;
34711;SDS011;20941;42.408;25.634;2023-07-13T12:23:40;8.27;;;5.50;;
34711;SDS011;20941;42.408;25.634;2023-07-13T12:26:08;7.50;;;4.80;;
34711;SDS011;20941;42.408;25.634;2023-07-13T12:28:43;14.73;;;5.38;;
34711;SDS011;20941;42.408;25.634;2023-07-13T12:34:06;7.00;;;5.20;;
34711;SDS011;20941;42.408;25.634;2023-07-13T12:36:32;6.70;;;4.70;;
34711;SDS011;20941;42.408;25.634;2023-07-13T12:39:04;5.88;;;4.72;;
34711;SDS011;20941;42.408;25.634;2023-07-13T12:41:30;11.48;;;5.70;;
34711;SDS011;20941;42.408;25.634;2023-07-13T12:43:55;6.10;;;4.57;;
34711;SDS011;20941;42.408;25.634;2023-07-13T12:46:24;5.82;;;5.13;;
34711;SDS011;20941;42.408;25.634;2023-07-13T12:48:57;10.77;;;5.47;;
34711;SDS011;20941;42.408;25.634;2023-07-13T12:51:25;17.15;;;6.55;;
34711;SDS011;20941;42.408;25.634;2023-07-13T12:53:56;11.23;;;5.63;;
34711;SDS011;20941;42.408;25.634;2023-07-13T12:56:23;9.30;;;4.68;;
34711;SDS011;20941;42.408;25.634;2023-07-13T12:58:57;7.43;;;4.93;;
34711;SDS011;20941;42.408;25.634;2023-07-13T13:01:29;8.05;;;4.72;;
34711;SDS011;20941;42.408;25.634;2023-07-13T13:06:25;7.83;;;4.87;;
34711;SDS011;20941;42.408;25.634;2023-07-13T13:08:58;5.63;;;5.13;;
34711;SDS011;20941;42.408;25.634;2023-07-13T13:11:25;6.43;;;5.30;;
34711;SDS011;20941;42.408;25.634;2023-07-13T13:13:51;7.22;;;5.18;;
34711;SDS011;20941;42.408;25.634;2023-07-13T13:18:42;14.03;;;5.70;;
34711;SDS011;20941;42.408;25.634;2023-07-13T13:21:08;8.13;;;5.40;;
34711;SDS011;20941;42.408;25.634;2023-07-13T13:23:34;8.13;;;5.15;;
34711;SDS011;20941;42.408;25.634;2023-07-13T13:25:59;5.80;;;4.63;;
34711;SDS011;20941;42.408;25.634;2023-07-13T13:28:25;8.43;;;5.60;;
34711;SDS011;20941;42.408;25.634;2023-07-13T13:30:51;9.00;;;5.47;;
34711;SDS011;20941;42.408;25.634;2023-07-13T13:33:17;9.18;;;5.78;;
34711;SDS011;20941;42.408;25.634;2023-07-13T13:35:43;11.95;;;5.82;;
34711;SDS011;20941;42.408;25.634;2023-07-13T13:38:19;8.10;;;5.47;;
34711;SDS011;20941;42.408;25.634;2023-07-13T13:40:45;12.88;;;5.88;;
34711;SDS011;20941;42.408;25.634;2023-07-13T13:43:24;4.72;;;4.32;;
34711;SDS011;20941;42.408;25.634;2023-07-13T13:45:56;9.00;;;4.75;;
34711;SDS011;20941;42.408;25.634;2023-07-13T13:48:27;10.13;;;5.45;;
34711;SDS011;20941;42.408;25.634;2023-07-13T13:50:55;10.50;;;5.32;;
34711;SDS011;20941;42.408;25.634;2023-07-13T13:53:21;7.38;;;4.35;;
34711;SDS011;20941;42.408;25.634;2023-07-13T13:55:47;8.05;;;5.20;;
34711;SDS011;20941;42.408;25.634;2023-07-13T13:58:12;28.80;;;6.55;;
34711;SDS011;20941;42.408;25.634;2023-07-13T14:00:38;14.97;;;4.70;;
34711;SDS011;20941;42.408;25.634;2023-07-13T14:03:03;6.97;;;4.50;;
34711;SDS011;20941;42.408;25.634;2023-07-13T14:05:29;9.00;;;5.10;;
34711;SDS011;20941;42.408;25.634;2023-07-13T14:07:55;9.43;;;4.97;;
34711;SDS011;20941;42.408;25.634;2023-07-13T14:10:22;8.00;;;4.70;;
34711;SDS011;20941;42.408;25.634;2023-07-13T14:12:51;9.38;;;5.32;;
34711;SDS011;20941;42.408;25.634;2023-07-13T14:17:42;8.60;;;4.90;;
34711;SDS011;20941;42.408;25.634;2023-07-13T14:20:11;7.40;;;5.07;;
34711;SDS011;20941;42.408;25.634;2023-07-13T14:22:37;8.15;;;4.25;;
34711;SDS011;20941;42.408;25.634;2023-07-13T14:25:03;6.53;;;4.90;;
34711;SDS011;20941;42.408;25.634;2023-07-13T14:27:28;8.48;;;4.07;;
34711;SDS011;20941;42.408;25.634;2023-07-13T14:29:53;6.60;;;4.00;;
34711;SDS011;20941;42.408;25.634;2023-07-13T14:32:19;8.07;;;4.60;;
34711;SDS011;20941;42.408;25.634;2023-07-13T14:34:44;9.73;;;4.97;;
34711;SDS011;20941;42.408;25.634;2023-07-13T14:37:13;7.85;;;4.40;;
34711;SDS011;20941;42.408;25.634;2023-07-13T14:39:39;12.48;;;4.75;;
34711;SDS011;20941;42.408;25.634;2023-07-13T14:42:08;7.38;;;4.47;;
34711;SDS011;20941;42.408;25.634;2023-07-13T14:44:33;12.88;;;5.05;;
34711;SDS011;20941;42.408;25.634;2023-07-13T14:46:59;7.30;;;4.93;;
34711;SDS011;20941;42.408;25.634;2023-07-13T14:49:30;9.43;;;4.45;;
34711;SDS011;20941;42.408;25.634;2023-07-13T14:51:57;7.90;;;4.82;;
34711;SDS011;20941;42.408;25.634;2023-07-13T14:54:23;13.57;;;4.78;;
34711;SDS011;20941;42.408;25.634;2023-07-13T14:56:48;12.35;;;4.90;;
34711;SDS011;20941;42.408;25.634;2023-07-13T14:59:14;12.80;;;5.18;;
34711;SDS011;20941;42.408;25.634;2023-07-13T15:01:39;16.47;;;5.47;;
34711;SDS011;20941;42.408;25.634;2023-07-13T15:04:05;10.38;;;5.03;;
34711;SDS011;20941;42.408;25.634;2023-07-13T15:06:31;11.35;;;5.03;;
34711;SDS011;20941;42.408;25.634;2023-07-13T15:08:56;11.57;;;4.82;;
34711;SDS011;20941;42.408;25.634;2023-07-13T15:11:22;9.27;;;4.80;;
34711;SDS011;20941;42.408;25.634;2023-07-13T15:13:47;11.27;;;4.90;;
34711;SDS011;20941;42.408;25.634;2023-07-13T15:16:15;7.72;;;4.70;;
34711;SDS011;20941;42.408;25.634;2023-07-13T15:18:40;10.52;;;5.45;;
34711;SDS011;20941;42.408;25.634;2023-07-13T15:21:08;7.97;;;4.80;;
34711;SDS011;20941;42.408;25.634;2023-07-13T15:23:34;6.53;;;4.70;;
34711;SDS011;20941;42.408;25.634;2023-07-13T15:26:00;13.73;;;4.97;;
34711;SDS011;20941;42.408;25.634;2023-07-13T15:28:25;8.13;;;5.03;;
34711;SDS011;20941;42.408;25.634;2023-07-13T15:30:50;10.83;;;5.17;;
34711;SDS011;20941;42.408;25.634;2023-07-13T15:35:44;11.40;;;4.32;;
34711;SDS011;20941;42.408;25.634;2023-07-13T15:38:15;14.00;;;4.85;;
34711;SDS011;20941;42.408;25.634;2023-07-13T15:40:41;11.80;;;5.13;;
34711;SDS011;20941;42.408;25.634;2023-07-13T15:43:10;18.40;;;6.05;;
34711;SDS011;20941;42.408;25.634;2023-07-13T15:45:36;7.45;;;4.43;;
34711;SDS011;20941;42.408;25.634;2023-07-13T15:48:01;15.57;;;5.38;;
34711;SDS011;20941;42.408;25.634;2023-07-13T15:50:42;11.20;;;5.57;;
34711;SDS011;20941;42.408;25.634;2023-07-13T15:53:08;8.98;;;4.70;;
34711;SDS011;20941;42.408;25.634;2023-07-13T15:55:35;11.73;;;4.60;;
34711;SDS011;20941;42.408;25.634;2023-07-13T15:58:02;14.57;;;5.15;;
34711;SDS011;20941;42.408;25.634;2023-07-13T16:00:27;9.03;;;5.00;;
34711;SDS011;20941;42.408;25.634;2023-07-13T16:02:53;10.95;;;4.72;;
34711;SDS011;20941;42.408;25.634;2023-07-13T16:05:19;9.65;;;4.90;;
34711;SDS011;20941;42.408;25.634;2023-07-13T16:07:47;14.32;;;4.90;;
34711;SDS011;20941;42.408;25.634;2023-07-13T16:10:13;7.40;;;4.85;;
34711;SDS011;20941;42.408;25.634;2023-07-13T16:12:39;8.85;;;4.95;;
34711;SDS011;20941;42.408;25.634;2023-07-13T16:15:10;7.22;;;5.10;;
34711;SDS011;20941;42.408;25.634;2023-07-13T16:17:37;13.65;;;5.50;;
34711;SDS011;20941;42.408;25.634;2023-07-13T16:20:02;9.80;;;4.90;;
34711;SDS011;20941;42.408;25.634;2023-07-13T16:22:28;9.98;;;5.30;;
34711;SDS011;20941;42.408;25.634;2023-07-13T16:24:54;15.13;;;6.10;;
34711;SDS011;20941;42.408;25.634;2023-07-13T16:27:21;8.43;;;4.97;;
34711;SDS011;20941;42.408;25.634;2023-07-13T16:29:48;9.65;;;5.40;;